Time;durP1;ratioP1;P1;durP2;ratioP2;P2;SDS_P1;SDS_P2;PMS_P1;PMS_P2;Temp;Humidity;BMP_temperature;BMP_pressure;BME280_temperature;BME280_humidity;BME280_pressure;Samples;Min_cycle;Max_cycle;Signal;HPM_P1;HPM_P2
2021/09/09 00:02:23;;;;;;;5.37;3.05;;;;;;;21.08;38.09;102435.98;1710530;83;21065;-49
2021/09/09 00:04:50;;;;;;;5.25;3.02;;;;;;;21.06;37.80;102438.21;1703033;83;21041;-49
2021/09/09 00:07:19;;;;;;;6.47;2.50;;;;;;;21.05;37.43;102437.83;1695637;83;21552;-46
2021/09/09 00:09:49;;;;;;;6.83;2.85;;;;;;;21.01;36.82;102430.89;1707838;83;21069;-49
2021/09/09 00:12:16;;;;;;;7.53;3.15;;;;;;;21.01;36.63;102430.89;1705483;83;21481;-49
2021/09/09 00:14:45;;;;;;;5.55;3.37;;;;;;;21.00;36.83;102437.09;1701852;83;21514;-46
2021/09/09 00:17:12;;;;;;;5.05;2.90;;;;;;;21.00;36.88;102430.93;1704224;83;21033;-47
2021/09/09 00:19:40;;;;;;;4.78;2.95;;;;;;;20.97;37.02;102431.94;1705540;83;21006;-49
2021/09/09 00:22:07;;;;;;;4.67;2.77;;;;;;;20.97;37.26;102426.64;1709976;83;21025;-46
2021/09/09 00:24:34;;;;;;;6.12;3.20;;;;;;;20.96;36.99;102427.55;1703563;83;21081;-48
2021/09/09 00:27:00;;;;;;;3.70;3.17;;;;;;;20.95;36.82;102423.19;1708799;83;21079;-46
2021/09/09 00:29:29;;;;;;;8.45;3.02;;;;;;;20.93;36.63;102425.03;1711406;83;21021;-45
2021/09/09 00:31:58;;;;;;;5.20;2.72;;;;;;;20.92;36.84;102420.65;1707167;83;21048;-48
2021/09/09 00:34:25;;;;;;;5.92;2.95;;;;;;;20.92;37.06;102416.68;1706572;83;21061;-47
2021/09/09 00:36:52;;;;;;;3.50;3.17;;;;;;;20.92;37.25;102420.65;1697398;83;21509;-47
2021/09/09 00:39:18;;;;;;;5.80;3.22;;;;;;;20.91;37.60;102416.30;1703413;83;21074;-49
2021/09/09 00:41:45;;;;;;;8.38;3.77;;;;;;;20.92;38.09;102423.30;1691661;83;21006;-49
2021/09/09 00:44:28;;;;;;;9.00;3.87;;;;;;;20.93;39.16;102418.42;1705174;83;21041;-51
2021/09/09 00:47:05;;;;;;;5.00;3.50;;;;;;;20.94;40.02;102424.09;1705317;83;21033;-49
2021/09/09 00:49:34;;;;;;;8.40;4.42;;;;;;;20.93;40.56;102419.74;1706800;83;21025;-49
2021/09/09 00:52:01;;;;;;;7.35;4.33;;;;;;;20.93;40.60;102421.06;1697484;83;21509;-46
2021/09/09 00:54:28;;;;;;;7.35;4.35;;;;;;;20.91;40.57;102417.62;1642044;85;20975;-49
2021/09/09 00:56:55;;;;;;;7.55;4.42;;;;;;;20.92;40.67;102415.36;1660376;85;21042;-49
2021/09/09 00:59:22;;;;;;;5.22;4.25;;;;;;;20.92;40.54;102412.71;1655195;85;21042;-50
2021/09/09 01:01:49;;;;;;;7.25;4.62;;;;;;;20.93;40.54;102415.77;1705487;83;21081;-49
2021/09/09 01:04:16;;;;;;;5.95;4.97;;;;;;;20.93;40.72;102411.80;1708190;83;21541;-50
2021/09/09 01:06:43;;;;;;;5.47;3.95;;;;;;;20.93;41.06;102415.77;1705497;83;21568;-49
2021/09/09 01:09:09;;;;;;;6.65;4.35;;;;;;;20.96;40.62;102418.28;1683774;83;21088;-49
2021/09/09 01:11:36;;;;;;;5.20;3.75;;;;;;;20.96;40.32;102416.96;1704537;83;21021;-49
2021/09/09 01:14:07;;;;;;;7.30;4.55;;;;;;;20.95;40.10;102415.25;1702609;83;21060;-50
2021/09/09 01:16:35;;;;;;;8.30;4.65;;;;;;;20.95;40.09;102412.61;1685410;83;21010;-50
2021/09/09 01:19:03;;;;;;;8.13;4.95;;;;;;;20.96;40.42;102410.34;1707720;83;21568;-51
2021/09/09 01:21:32;;;;;;;7.58;5.15;;;;;;;20.95;40.54;102407.77;1714370;83;21068;-46
2021/09/09 01:24:00;;;;;;;7.10;4.83;;;;;;;20.93;40.50;102409.16;1708498;83;21029;-49
2021/09/09 01:26:29;;;;;;;7.58;5.50;;;;;;;20.92;40.48;102404.77;1701804;83;21080;-49
2021/09/09 01:28:57;;;;;;;7.67;5.37;;;;;;;20.92;40.60;102404.77;1700802;83;21513;-47
2021/09/09 01:31:24;;;;;;;8.13;5.35;;;;;;;20.91;41.02;102407.03;1714712;83;21013;-49
2021/09/09 01:33:56;;;;;;;12.73;5.67;;;;;;;20.91;41.39;102405.70;1711263;83;21057;-49
2021/09/09 01:36:23;;;;;;;8.00;5.75;;;;;;;20.90;41.95;102410.58;1708307;83;21097;-49
2021/09/09 01:38:50;;;;;;;11.57;5.80;;;;;;;20.91;42.48;102397.77;1715507;83;21021;-48
2021/09/09 01:41:17;;;;;;;11.85;5.62;;;;;;;20.91;42.79;102400.41;1706940;83;21045;-48
2021/09/09 01:43:45;;;;;;;13.28;6.17;;;;;;;20.88;42.96;102394.36;1702545;83;21034;-48
2021/09/09 01:46:11;;;;;;;13.00;7.08;;;;;;;20.88;43.06;102396.55;1704308;83;21037;-46
2021/09/09 01:48:38;;;;;;;9.70;6.08;;;;;;;20.90;43.14;102395.16;1705186;83;21506;-49
2021/09/09 01:51:05;;;;;;;9.00;6.25;;;;;;;20.90;43.17;102397.35;1712383;83;21006;-49
2021/09/09 01:53:31;;;;;;;9.33;6.45;;;;;;;20.88;43.40;102394.36;1706703;83;21057;-51
2021/09/09 01:55:58;;;;;;;7.35;6.05;;;;;;;20.87;43.50;102390.88;1704456;83;21061;-50
2021/09/09 01:58:24;;;;;;;9.10;6.05;;;;;;;20.87;43.58;102394.84;1705440;83;21096;-49
2021/09/09 02:00:51;;;;;;;8.18;5.90;;;;;;;20.83;43.55;102389.27;1710921;82;21021;-48
2021/09/09 02:03:18;;;;;;;8.38;6.10;;;;;;;20.81;43.56;102391.08;1696711;84;21082;-49
2021/09/09 02:05:45;;;;;;;8.65;5.95;;;;;;;20.78;43.66;102385.92;1707371;83;21092;-49
2021/09/09 02:08:12;;;;;;;8.50;6.20;;;;;;;20.76;43.86;102383.80;1706023;83;21049;-50
2021/09/09 02:10:39;;;;;;;6.95;5.55;;;;;;;20.77;44.02;102384.18;1709114;83;21001;-46
2021/09/09 02:13:07;;;;;;;8.28;6.08;;;;;;;20.80;44.05;102384.08;1711914;83;21029;-49
2021/09/09 02:15:34;;;;;;;11.63;6.08;;;;;;;20.78;44.07;102383.28;1691629;83;21053;-50
2021/09/09 02:18:01;;;;;;;9.83;6.15;;;;;;;20.77;44.13;102381.53;1699618;83;21009;-47
2021/09/09 02:20:29;;;;;;;9.33;5.50;;;;;;;20.76;44.32;102382.92;1707075;83;21005;-47
2021/09/09 02:22:58;;;;;;;10.82;6.00;;;;;;;20.73;44.46;102380.41;1704606;83;21068;-50
2021/09/09 02:25:24;;;;;;;7.45;5.60;;;;;;;20.71;44.52;102379.13;1709189;83;21080;-50
2021/09/09 02:27:51;;;;;;;11.15;5.50;;;;;;;20.70;44.67;102381.39;1708155;83;21593;-50
2021/09/09 02:30:17;;;;;;;11.88;6.28;;;;;;;20.69;44.94;102376.16;1701703;83;21053;-49
2021/09/09 02:32:46;;;;;;;10.13;5.78;;;;;;;20.67;45.19;102382.81;1708571;83;21520;-47
2021/09/09 02:35:13;;;;;;;15.55;6.60;;;;;;;20.66;45.31;102374.94;1708542;82;21038;-49
2021/09/09 02:37:40;;;;;;;12.85;7.28;;;;;;;20.66;45.45;102377.59;1703911;83;21065;-49
2021/09/09 02:40:10;;;;;;;10.48;6.45;;;;;;;20.65;45.60;102384.66;1707003;83;21068;-49
2021/09/09 02:42:36;;;;;;;12.78;6.10;;;;;;;20.65;45.77;102382.01;1700428;83;21303;-53
2021/09/09 02:45:05;;;;;;;13.28;7.50;;;;;;;20.62;45.94;102386.11;1706719;83;21517;-46
2021/09/09 02:47:33;;;;;;;11.00;6.85;;;;;;;20.62;46.00;102384.78;1707920;83;21522;-48
2021/09/09 02:50:00;;;;;;;8.68;6.33;;;;;;;20.62;46.06;102390.08;1706524;83;20985;-47
2021/09/09 02:52:28;;;;;;;9.40;6.85;;;;;;;20.63;46.27;102383.02;1712126;83;21010;-49
2021/09/09 02:54:55;;;;;;;11.10;6.92;;;;;;;20.61;46.42;102392.30;1706219;83;21300;-49
2021/09/09 02:57:22;;;;;;;16.05;6.78;;;;;;;20.62;46.55;102391.40;1703783;83;21028;-46
2021/09/09 02:59:49;;;;;;;13.50;7.00;;;;;;;20.61;46.56;102393.63;1707965;83;21537;-50
2021/09/09 03:02:17;;;;;;;12.40;6.45;;;;;;;20.60;46.66;102397.20;1706801;83;20982;-49
2021/09/09 03:04:43;;;;;;;10.53;6.65;;;;;;;20.58;46.79;102396.85;1704819;83;21037;-48
2021/09/09 03:07:11;;;;;;;10.98;6.72;;;;;;;20.56;46.92;102402.66;1703021;83;21014;-47
2021/09/09 03:09:38;;;;;;;12.53;6.47;;;;;;;20.54;47.04;102401.41;1705575;83;21042;-48
2021/09/09 03:12:06;;;;;;;7.97;6.35;;;;;;;20.52;46.97;102395.31;1709379;83;21057;-50
2021/09/09 03:14:33;;;;;;;10.70;6.35;;;;;;;20.49;46.97;102391.44;1698067;83;21045;-48
2021/09/09 03:17:01;;;;;;;14.85;6.40;;;;;;;20.52;46.84;102403.24;1703730;83;21010;-47
2021/09/09 03:19:29;;;;;;;11.12;6.55;;;;;;;20.52;46.64;102399.73;1688057;83;21088;-49
2021/09/09 03:21:57;;;;;;;10.43;6.53;;;;;;;20.52;46.42;102401.92;1706215;83;21038;-49
2021/09/09 03:24:24;;;;;;;13.55;6.90;;;;;;;20.53;46.29;102400.98;1704808;83;21580;-48
2021/09/09 03:26:51;;;;;;;11.12;6.97;;;;;;;20.51;46.29;102404.59;1704062;83;21128;-46
2021/09/09 03:29:17;;;;;;;11.68;6.62;;;;;;;20.50;46.34;102401.11;1716800;83;21048;-49
2021/09/09 03:31:44;;;;;;;11.12;6.72;;;;;;;20.49;46.27;102402.02;1712745;83;21057;-49
2021/09/09 03:34:11;;;;;;;11.70;7.03;;;;;;;20.48;46.34;102402.08;1711236;83;21552;-48
2021/09/09 03:36:38;;;;;;;13.75;7.12;;;;;;;20.48;46.55;102408.24;1708382;83;21021;-47
2021/09/09 03:39:06;;;;;;;12.33;6.37;;;;;;;20.46;46.63;102402.15;1705617;82;21049;-46
2021/09/09 03:41:33;;;;;;;10.93;6.80;;;;;;;20.47;46.71;102401.21;1702453;83;21025;-49
2021/09/09 03:44:00;;;;;;;13.35;7.17;;;;;;;20.47;46.89;102405.17;1704359;83;21078;-49
2021/09/09 03:46:26;;;;;;;12.73;6.58;;;;;;;20.47;46.99;102399.89;1703325;83;21001;-46
2021/09/09 03:48:53;;;;;;;12.70;6.17;;;;;;;20.48;47.06;102402.08;1709698;83;21033;-49
2021/09/09 03:51:19;;;;;;;18.25;6.47;;;;;;;20.48;47.13;102405.59;1708302;83;21017;-48
2021/09/09 03:53:46;;;;;;;16.60;7.70;;;;;;;20.47;47.12;102403.86;1717582;83;21051;-49
2021/09/09 03:56:14;;;;;;;8.93;6.33;;;;;;;20.49;47.05;102413.92;1701953;83;21545;-49
2021/09/09 03:58:41;;;;;;;11.22;6.58;;;;;;;20.53;46.97;102408.92;1706136;83;21140;-49
2021/09/09 04:01:07;;;;;;;11.55;6.50;;;;;;;20.56;47.21;102411.47;1705345;83;21048;-48
2021/09/09 04:03:33;;;;;;;9.93;6.20;;;;;;;20.56;47.31;102416.75;1705226;83;21510;-48
2021/09/09 04:06:00;;;;;;;7.70;6.33;;;;;;;20.50;47.51;102416.11;1705914;83;21037;-48
2021/09/09 04:08:29;;;;;;;11.18;7.05;;;;;;;20.47;47.66;102418.40;1700307;83;21517;-50
2021/09/09 04:10:56;;;;;;;12.65;6.40;;;;;;;20.47;47.75;102422.37;1703137;83;20997;-47
2021/09/09 04:13:22;;;;;;;9.13;6.90;;;;;;;20.46;47.67;102414.05;1703963;83;21073;-49
2021/09/09 04:15:48;;;;;;;8.43;6.00;;;;;;;20.49;47.66;102416.56;1701925;83;21025;-49
2021/09/09 04:18:17;;;;;;;9.90;6.90;;;;;;;20.54;47.56;102415.95;1706547;83;21919;-45
2021/09/09 04:20:43;;;;;;;17.37;6.37;;;;;;;20.58;47.62;102416.69;1704112;83;21108;-48
2021/09/09 04:23:10;;;;;;;11.70;6.70;;;;;;;20.59;47.72;102420.59;1710616;83;20998;-50
2021/09/09 04:25:38;;;;;;;10.85;6.95;;;;;;;20.61;47.86;102420.08;1710848;83;21580;-48
2021/09/09 04:28:04;;;;;;;15.32;7.90;;;;;;;20.64;47.91;102419.98;1697479;83;21061;-49
2021/09/09 04:30:31;;;;;;;9.53;6.55;;;;;;;20.67;48.13;102415.88;1708505;83;21002;-49
2021/09/09 04:32:57;;;;;;;11.53;6.22;;;;;;;20.70;48.14;102415.77;1708583;83;21026;-46
2021/09/09 04:35:24;;;;;;;10.10;6.30;;;;;;;20.70;48.23;102417.09;1704848;83;21108;-49
2021/09/09 04:37:52;;;;;;;14.03;7.25;;;;;;;20.74;48.38;102415.19;1703091;83;21057;-49
2021/09/09 04:40:19;;;;;;;13.08;7.40;;;;;;;20.73;48.61;102414.32;1705030;83;21077;-48
2021/09/09 04:42:45;;;;;;;11.38;6.97;;;;;;;20.77;48.52;102419.06;1716126;83;21539;-51
2021/09/09 04:45:12;;;;;;;9.68;7.08;;;;;;;20.78;48.14;102418.99;1707987;83;21029;-49
2021/09/09 04:47:39;;;;;;;14.63;7.50;;;;;;;20.74;47.89;102416.06;1708926;83;20982;-48
2021/09/09 04:50:09;;;;;;;9.10;6.75;;;;;;;20.71;47.77;102417.48;1703637;83;20987;-51
2021/09/09 04:52:36;;;;;;;9.73;6.83;;;;;;;20.70;47.79;102413.13;1701743;83;21517;-46
2021/09/09 04:55:04;;;;;;;14.07;6.87;;;;;;;20.71;47.76;102416.64;1701689;83;21049;-48
2021/09/09 04:57:31;;;;;;;11.48;6.75;;;;;;;20.70;47.80;102417.09;1702504;83;21478;-49
2021/09/09 04:59:57;;;;;;;11.88;6.80;;;;;;;20.72;47.84;102413.94;1710532;83;21276;-49
2021/09/09 05:02:23;;;;;;;11.30;6.97;;;;;;;20.74;48.00;102414.73;1713819;83;21009;-50
2021/09/09 05:04:50;;;;;;;10.48;6.95;;;;;;;20.81;47.80;102417.53;1710100;83;21045;-46
2021/09/09 05:07:18;;;;;;;10.23;7.10;;;;;;;20.85;47.87;102415.20;1707082;83;20997;-49
2021/09/09 05:09:45;;;;;;;12.43;6.67;;;;;;;20.87;47.82;102416.02;1700897;83;21029;-49
2021/09/09 05:12:12;;;;;;;19.67;7.08;;;;;;;20.88;47.86;102413.75;1702650;83;21041;-46
2021/09/09 05:14:40;;;;;;;10.10;6.78;;;;;;;20.91;47.85;102416.30;1712759;83;21195;-46
2021/09/09 05:17:07;;;;;;;10.58;6.80;;;;;;;20.96;47.79;102416.96;1701503;83;21502;-47
2021/09/09 05:19:35;;;;;;;10.08;7.10;;;;;;;21.00;47.60;102421.22;1702252;83;21057;-51
2021/09/09 05:22:03;;;;;;;15.00;8.35;;;;;;;21.02;47.31;102416.75;1702068;83;21037;-51
2021/09/09 05:24:30;;;;;;;17.57;8.05;;;;;;;21.04;47.07;102418.88;1700346;83;21056;-46
2021/09/09 05:26:56;;;;;;;13.53;7.87;;;;;;;21.08;47.08;102419.64;1708846;83;21117;-46
2021/09/09 05:29:23;;;;;;;11.97;7.40;;;;;;;21.11;47.22;102420.84;1704122;83;21471;-49
2021/09/09 05:31:52;;;;;;;14.80;7.60;;;;;;;21.12;46.83;102421.70;1705084;83;21082;-49
2021/09/09 05:34:18;;;;;;;11.63;6.90;;;;;;;21.13;46.56;102420.77;1704473;83;21073;-48
2021/09/09 05:36:45;;;;;;;14.00;7.00;;;;;;;21.14;46.56;102417.21;1703743;83;21064;-53
2021/09/09 05:39:12;;;;;;;13.15;6.72;;;;;;;21.14;46.65;102409.27;1710762;83;21513;-49
2021/09/09 05:41:39;;;;;;;12.80;6.97;;;;;;;21.15;46.64;102408.33;1706773;83;21061;-49
2021/09/09 05:44:07;;;;;;;11.22;7.28;;;;;;;21.16;46.62;102412.27;1707288;83;21096;-49
2021/09/09 05:46:34;;;;;;;10.45;6.78;;;;;;;21.17;46.67;102410.45;1700495;83;21069;-48
2021/09/09 05:49:01;;;;;;;13.03;7.28;;;;;;;21.20;46.81;102406.37;1709880;83;20982;-46
2021/09/09 05:51:29;;;;;;;11.40;7.30;;;;;;;21.20;46.94;102406.37;1705756;83;21068;-47
2021/09/09 05:53:56;;;;;;;11.63;7.25;;;;;;;21.26;46.81;102399.52;1693470;83;21006;-46
2021/09/09 05:56:23;;;;;;;11.33;6.85;;;;;;;21.31;46.80;102397.56;1711618;83;21493;-50
2021/09/09 05:58:52;;;;;;;12.10;7.28;;;;;;;21.39;46.71;102402.08;1705595;83;21035;-48
2021/09/09 06:01:18;;;;;;;13.50;7.05;;;;;;;21.51;46.58;102402.89;1699063;83;21508;-49
2021/09/09 06:03:45;;;;;;;13.45;7.33;;;;;;;21.65;46.34;102407.16;1698573;83;21064;-47
2021/09/09 06:06:15;;;;;;;14.55;7.10;;;;;;;21.78;46.17;102404.41;1712919;83;21568;-49
2021/09/09 06:08:43;;;;;;;11.80;6.75;;;;;;;21.97;45.75;102398.73;1680782;83;20998;-49
2021/09/09 06:11:11;;;;;;;10.95;6.87;;;;;;;22.15;45.39;102400.61;1707701;83;21497;-50
2021/09/09 06:13:38;;;;;;;8.88;6.70;;;;;;;22.26;45.18;102406.73;1705625;83;20990;-49
2021/09/09 06:16:06;;;;;;;12.23;6.80;;;;;;;22.32;44.97;102399.37;1694854;83;21544;-53
2021/09/09 06:18:34;;;;;;;13.88;7.53;;;;;;;22.36;44.84;102402.28;1702735;83;21021;-49
2021/09/09 06:21:01;;;;;;;9.75;6.83;;;;;;;22.39;44.84;102407.47;1708019;83;21544;-49
2021/09/09 06:23:28;;;;;;;15.35;7.22;;;;;;;22.41;44.88;102406.93;1708505;83;21026;-49
2021/09/09 06:25:55;;;;;;;18.80;6.90;;;;;;;22.43;45.15;102407.72;1707342;83;21097;-52
2021/09/09 06:28:21;;;;;;;12.20;6.87;;;;;;;22.49;45.16;102398.16;1705548;83;21057;-47
2021/09/09 06:30:48;;;;;;;9.88;6.72;;;;;;;22.55;45.17;102405.84;1697084;83;21006;-50
2021/09/09 06:33:14;;;;;;;9.83;6.40;;;;;;;22.60;45.18;102405.20;1703928;83;21554;-50
2021/09/09 06:35:43;;;;;;;10.72;6.92;;;;;;;22.64;45.45;102410.77;1705469;83;21527;-46
2021/09/09 06:38:09;;;;;;;13.18;6.97;;;;;;;22.69;45.73;102407.05;1703790;83;21112;-50
2021/09/09 06:40:36;;;;;;;10.90;7.58;;;;;;;22.75;45.69;102414.72;1705556;83;21085;-50
2021/09/09 06:43:03;;;;;;;9.28;7.08;;;;;;;22.81;45.82;102418.41;1707584;83;21481;-50
2021/09/09 06:45:29;;;;;;;12.73;7.47;;;;;;;22.83;45.88;102418.75;1699811;83;21065;-53
2021/09/09 06:47:56;;;;;;;10.60;7.12;;;;;;;22.83;46.19;102421.41;1695755;83;21635;-50
2021/09/09 06:50:23;;;;;;;12.85;6.83;;;;;;;22.82;46.52;102420.13;1708370;83;21020;-51
2021/09/09 06:52:49;;;;;;;13.30;6.85;;;;;;;22.81;46.85;102421.07;1708110;83;21109;-49
2021/09/09 06:55:16;;;;;;;11.45;6.80;;;;;;;22.79;47.10;102422.48;1705666;83;21510;-47
2021/09/09 06:57:43;;;;;;;12.35;7.00;;;;;;;22.80;47.49;102415.35;1703633;83;21010;-50
2021/09/09 07:00:11;;;;;;;53.65;10.15;;;;;;;22.82;47.75;102417.47;1708530;83;20985;-50
2021/09/09 07:02:37;;;;;;;12.78;7.60;;;;;;;22.84;48.10;102424.89;1701757;83;21540;-48
2021/09/09 07:05:05;;;;;;;11.60;7.62;;;;;;;22.87;48.23;102422.11;1708619;83;20984;-47
2021/09/09 07:07:32;;;;;;;9.78;7.40;;;;;;;22.91;48.47;102426.34;1704819;83;21045;-49
2021/09/09 07:09:58;;;;;;;12.18;6.80;;;;;;;22.95;48.70;102425.27;1701789;83;21034;-49
2021/09/09 07:12:25;;;;;;;10.30;6.37;;;;;;;23.03;49.09;102435.92;1693269;83;20994;-50
2021/09/09 07:14:53;;;;;;;9.70;5.47;;;;;;;23.17;49.32;102432.60;1706745;83;20998;-50
2021/09/09 07:17:21;;;;;;;11.28;5.90;;;;;;;23.30;49.18;102429.77;1700202;83;21634;-46
2021/09/09 07:19:48;;;;;;;10.15;6.65;;;;;;;23.43;48.90;102420.31;1707103;83;21080;-49
2021/09/09 07:22:15;;;;;;;9.83;5.05;;;;;;;23.58;48.67;102420.86;1711024;83;21014;-49
2021/09/09 07:24:42;;;;;;;11.12;5.90;;;;;;;23.75;48.28;102426.20;1707533;83;21010;-47
2021/09/09 07:27:09;;;;;;;10.53;6.30;;;;;;;23.94;48.07;102423.02;1706648;83;21035;-47
2021/09/09 07:29:35;;;;;;;11.68;6.67;;;;;;;24.12;47.67;102423.42;1707729;83;21139;-50
2021/09/09 07:32:03;;;;;;;11.97;7.00;;;;;;;24.24;47.35;102421.45;1705056;83;21112;-49
2021/09/09 07:34:29;;;;;;;20.95;8.08;;;;;;;24.34;47.05;102427.14;1706361;83;21033;-46
2021/09/09 07:36:57;;;;;;;14.93;7.20;;;;;;;24.39;46.80;102426.90;1710297;83;21041;-47
2021/09/09 07:39:23;;;;;;;8.60;5.80;;;;;;;24.41;46.64;102423.69;1703204;83;21509;-49
2021/09/09 07:41:50;;;;;;;17.95;10.45;;;;;;;24.42;46.88;102427.59;1703552;83;21002;-47
2021/09/09 07:44:16;;;;;;;9.58;6.70;;;;;;;24.42;46.79;102422.27;1698529;83;21033;-50
2021/09/09 07:46:43;;;;;;;14.07;8.55;;;;;;;24.43;46.97;102417.81;1704598;83;21029;-47
2021/09/09 07:49:15;;;;;;;14.18;8.08;;;;;;;24.45;47.00;102426.57;1707733;83;21037;-54
2021/09/09 07:51:41;;;;;;;11.68;6.90;;;;;;;24.47;47.16;102424.69;1697828;83;21054;-47
2021/09/09 07:54:08;;;;;;;14.73;6.65;;;;;;;24.48;47.05;102421.10;1705531;83;21002;-50
2021/09/09 07:56:35;;;;;;;8.35;4.65;;;;;;;24.52;47.00;102418.66;1705041;83;21517;-52
2021/09/09 07:59:01;;;;;;;9.15;6.87;;;;;;;24.55;46.93;102423.34;1705082;83;21064;-47
2021/09/09 08:01:28;;;;;;;11.12;6.10;;;;;;;24.58;46.95;102417.00;1702296;83;21045;-50
2021/09/09 08:03:55;;;;;;;9.18;5.83;;;;;;;24.59;46.89;102414.25;1707413;83;21462;-52
2021/09/09 08:06:24;;;;;;;8.03;5.28;;;;;;;24.62;47.02;102410.56;1707574;83;21069;-47
2021/09/09 08:08:50;;;;;;;10.50;5.42;;;;;;;24.65;47.08;102417.04;1706733;83;21541;-47
2021/09/09 08:11:18;;;;;;;10.93;5.60;;;;;;;24.69;46.94;102418.62;1707940;83;21461;-50
2021/09/09 08:13:44;;;;;;;7.37;4.55;;;;;;;24.73;46.97;102414.85;1709572;83;21064;-52
2021/09/09 08:16:13;;;;;;;11.38;5.03;;;;;;;24.75;46.91;102418.32;1695679;83;21081;-49
2021/09/09 08:18:40;;;;;;;7.83;4.90;;;;;;;24.77;46.68;102419.09;1709544;83;21029;-50
2021/09/09 08:21:07;;;;;;;7.40;4.45;;;;;;;24.76;46.50;102416.89;1706166;83;21045;-50
2021/09/09 08:23:33;;;;;;;6.17;4.90;;;;;;;24.77;46.36;102415.10;1704436;82;21037;-48
2021/09/09 08:26:01;;;;;;;8.63;4.53;;;;;;;24.78;46.26;102416.80;1703763;83;21569;-47
2021/09/09 08:28:27;;;;;;;11.40;5.10;;;;;;;24.81;45.93;102413.98;1706688;83;21061;-49
2021/09/09 08:30:55;;;;;;;6.95;3.83;;;;;;;24.84;45.82;102415.13;1704269;83;21030;-49
2021/09/09 08:33:22;;;;;;;9.10;3.83;;;;;;;24.87;45.59;102406.99;1704367;83;21050;-51
2021/09/09 08:35:48;;;;;;;6.85;3.90;;;;;;;24.87;45.18;102411.82;1702991;83;21030;-50
2021/09/09 08:38:16;;;;;;;8.65;4.28;;;;;;;24.89;45.04;102411.77;1707283;83;21037;-52
2021/09/09 08:40:42;;;;;;;4.87;4.15;;;;;;;24.91;45.18;102408.54;1705798;83;21573;-49
2021/09/09 08:43:10;;;;;;;8.45;3.80;;;;;;;24.95;45.09;102412.75;1704732;83;21147;-52
2021/09/09 08:45:36;;;;;;;6.25;3.80;;;;;;;24.96;45.12;102410.45;1700215;83;21034;-48
2021/09/09 08:48:07;;;;;;;7.55;3.70;;;;;;;24.98;44.82;102409.44;1707401;83;20994;-50
2021/09/09 08:50:34;;;;;;;9.53;3.95;;;;;;;25.00;44.54;102408.01;1704927;83;20986;-46
2021/09/09 08:53:01;;;;;;;5.47;4.20;;;;;;;25.03;44.55;102403.86;1704889;83;21057;-45
2021/09/09 08:55:28;;;;;;;5.83;4.10;;;;;;;25.07;44.54;102408.06;1702513;83;20997;-48
2021/09/09 08:57:56;;;;;;;7.97;4.00;;;;;;;25.11;44.41;102404.28;1702860;83;21030;-48
2021/09/09 09:00:23;;;;;;;5.45;3.52;;;;;;;25.17;44.25;102401.27;1709591;83;21530;-50
2021/09/09 09:02:54;;;;;;;6.78;3.45;;;;;;;25.21;43.93;102400.15;1708318;83;21017;-45
2021/09/09 09:05:21;;;;;;;8.38;3.25;;;;;;;25.25;43.40;102388.38;1657039;85;21108;-51
2021/09/09 09:07:56;;;;;;;4.40;3.77;;;;;;;25.30;43.43;102390.78;1661796;85;21179;-51
2021/09/09 09:10:24;;;;;;;9.03;3.95;;;;;;;25.36;43.12;102396.62;1657635;85;21192;-48
2021/09/09 09:12:52;;;;;;;5.05;3.37;;;;;;;25.43;42.63;102401.99;1649595;86;21070;-49
2021/09/09 09:15:28;;;;;;;9.88;3.70;;;;;;;25.53;42.49;102397.84;1660846;85;21045;-45
2021/09/09 09:18:06;;;;;;;5.08;3.58;;;;;;;25.53;42.49;102397.84;1658246;85;21063;-50
2021/09/09 09:20:49;;;;;;;5.75;3.22;;;;;;;25.57;41.73;102398.08;1663144;85;21007;-48
2021/09/09 09:23:26;;;;;;;11.63;3.98;;;;;;;25.64;41.35;102402.09;1621186;88;21056;-49
2021/09/09 09:25:59;;;;;;;7.78;3.80;;;;;;;25.76;40.74;102382.69;1622965;88;21141;-48
2021/09/09 09:28:52;;;;;;;6.35;4.25;;;;;;;25.76;40.74;102382.69;1625304;87;21086;-50
2021/09/09 09:31:25;;;;;;;7.55;4.00;;;;;;;25.79;40.96;102385.19;1568278;91;21157;-52
2021/09/09 09:33:59;;;;;;;8.15;4.03;;;;;;;25.87;40.86;102379.86;1564668;91;21078;-50
2021/09/09 09:36:37;;;;;;;7.80;4.62;;;;;;;25.89;40.84;102379.28;1524357;94;21119;-47
2021/09/09 09:39:15;;;;;;;7.28;5.42;;;;;;;25.89;40.84;102379.28;1506252;95;21168;-47
2021/09/09 09:41:56;;;;;;;10.32;4.47;;;;;;;25.93;40.90;102383.48;1528967;94;21106;-48
2021/09/09 09:44:36;;;;;;;5.62;3.70;;;;;;;25.96;41.05;102385.98;1536246;93;21121;-50
2021/09/09 09:49:56;;;;;;;7.42;4.08;;;;;;;26.02;40.78;102383.81;1508507;95;21070;-50
2021/09/09 09:52:28;;;;;;;5.70;3.20;;;;;;;26.05;40.27;102384.94;1508385;95;21166;-48
2021/09/09 09:54:59;;;;;;;5.40;3.35;;;;;;;26.10;40.11;102386.03;1508509;95;21594;-46
2021/09/09 09:57:27;;;;;;;5.97;3.08;;;;;;;26.13;40.05;102380.53;1508674;95;21598;-51
2021/09/09 09:59:54;;;;;;;4.17;3.30;;;;;;;26.15;39.95;102379.95;1508565;95;21073;-46
2021/09/09 10:02:20;;;;;;;7.12;3.22;;;;;;;26.15;39.82;102378.63;1504352;95;21115;-50
2021/09/09 10:04:49;;;;;;;5.03;3.35;;;;;;;26.15;39.87;102370.62;1495171;96;21590;-49
2021/09/09 10:07:16;;;;;;;7.05;3.42;;;;;;;26.18;39.98;102374.41;1494969;96;21094;-51
2021/09/09 10:09:43;;;;;;;4.40;3.35;;;;;;;26.22;40.03;102358.59;1488596;95;21122;-51
2021/09/09 10:12:11;;;;;;;7.30;3.62;;;;;;;26.22;40.03;102358.59;1463248;96;21558;-45
2021/09/09 10:14:49;;;;;;;8.73;3.00;;;;;;;26.25;39.72;102369.09;1495211;95;21206;-48
2021/09/09 10:17:22;;;;;;;5.92;3.33;;;;;;;26.27;39.47;102373.39;1475098;95;21054;-51
2021/09/09 10:19:50;;;;;;;9.03;3.67;;;;;;;26.31;39.35;102372.72;1470178;95;21101;-52
2021/09/09 10:22:20;;;;;;;7.10;3.87;;;;;;;26.32;39.41;102371.75;1531132;91;21105;-47
2021/09/09 10:25:04;;;;;;;3.55;3.20;;;;;;;26.35;39.45;102373.77;1542211;92;21620;-47
2021/09/09 10:27:35;;;;;;;7.05;3.72;;;;;;;26.37;39.03;102371.00;1544016;91;21046;-50
2021/09/09 10:30:06;;;;;;;7.15;3.30;;;;;;;26.39;39.10;102375.77;1542968;92;21125;-50
2021/09/09 10:32:45;;;;;;;7.90;3.72;;;;;;;26.40;38.79;102370.79;1550357;89;21646;-47
2021/09/09 10:35:23;;;;;;;9.70;3.35;;;;;;;26.42;38.76;102367.58;1588365;89;21042;-48
2021/09/09 10:37:54;;;;;;;9.15;3.15;;;;;;;26.47;38.59;102364.12;1592963;89;21073;-49
2021/09/09 10:40:32;;;;;;;7.28;3.83;;;;;;;26.50;38.39;102362.62;1594518;89;21045;-46
2021/09/09 10:43:16;;;;;;;5.58;3.02;;;;;;;26.53;38.09;102359.73;1591904;89;21525;-50
2021/09/09 10:45:44;;;;;;;4.50;3.22;;;;;;;26.57;38.20;102361.25;1599396;83;21156;-49
2021/09/09 10:48:22;;;;;;;4.17;3.10;;;;;;;26.55;37.78;102354.69;1706608;83;21025;-54
2021/09/09 10:51:00;;;;;;;5.37;2.98;;;;;;;26.56;38.00;102359.55;1710407;83;21085;-49
2021/09/09 10:53:55;;;;;;;8.40;3.52;;;;;;;26.54;38.05;102349.45;1696379;83;21484;-50
2021/09/09 10:56:25;;;;;;;4.85;3.62;;;;;;;26.54;38.02;102348.12;1705895;83;21050;-46
2021/09/09 10:59:14;;;;;;;8.53;3.85;;;;;;;26.55;37.54;102344.48;1710955;83;21041;-48
2021/09/09 11:01:44;;;;;;;7.72;4.10;;;;;;;26.54;37.65;102336.94;1702503;83;20997;-49
2021/09/09 11:04:34;;;;;;;6.08;3.40;;;;;;;26.55;37.58;102331.99;1704931;83;20995;-49
2021/09/09 11:07:03;;;;;;;7.30;3.80;;;;;;;26.58;37.42;102332.28;1644601;86;21035;-50
2021/09/09 11:09:30;;;;;;;15.10;4.53;;;;;;;26.63;37.04;102327.98;1695725;83;21015;-49
2021/09/09 11:12:01;;;;;;;12.82;4.55;;;;;;;26.65;36.71;102325.58;1711686;83;21052;-47
2021/09/09 11:14:31;;;;;;;9.03;3.62;;;;;;;26.67;36.60;102320.99;1710003;83;21002;-49
2021/09/09 11:17:00;;;;;;;6.22;3.87;;;;;;;26.71;36.39;102319.84;1696710;83;21533;-47
2021/09/09 11:19:27;;;;;;;10.35;3.90;;;;;;;26.69;36.30;102313.73;1697766;83;21132;-49
2021/09/09 11:22:00;;;;;;;7.55;4.67;;;;;;;26.69;36.06;102316.41;1706588;83;21093;-50
2021/09/09 11:24:32;;;;;;;9.65;4.00;;;;;;;26.68;36.59;102306.70;1684294;83;21021;-50
2021/09/09 11:26:58;;;;;;;13.97;5.13;;;;;;;26.70;36.89;102307.45;1714053;83;22049;-50
2021/09/09 11:29:25;;;;;;;11.20;5.00;;;;;;;26.72;36.84;102301.57;1712846;83;21108;-49
2021/09/09 11:31:54;;;;;;;11.88;4.10;;;;;;;26.75;36.64;102299.19;1712269;83;20986;-48